createdAt,value
2023-02-11T00:00:35.406Z,99698.82
2023-02-11T00:03:07.492Z,99703.17
2023-02-11T00:05:39.736Z,99698.02
2023-02-11T00:08:13.412Z,99695.41
2023-02-11T00:10:46.617Z,99703.17
2023-02-11T00:13:18.816Z,99693.72
2023-02-11T00:15:51.780Z,99698.08
2023-02-11T00:18:26.669Z,99694.64
2023-02-11T00:20:59.540Z,99704.16
2023-02-11T00:23:32.098Z,99701.74
2023-02-11T00:26:04.679Z,99694.81
2023-02-11T00:28:36.928Z,99701.02
2023-02-11T00:31:09.667Z,99702.80
2023-02-11T00:33:42.246Z,99697.72
2023-02-11T00:36:23.457Z,99702.15
2023-02-11T00:38:57.248Z,99714.25
2023-02-11T00:41:30.794Z,99714.40
2023-02-11T00:44:04.878Z,99698.23
2023-02-11T00:46:37.526Z,99697.47
2023-02-11T00:49:10.298Z,99706.92
2023-02-11T00:51:42.814Z,99704.43
2023-02-11T00:54:15.123Z,99712.16
2023-02-11T00:56:47.885Z,99714.00
2023-02-11T00:59:20.331Z,99713.28
2023-02-11T01:01:52.284Z,99718.45
2023-02-11T01:04:24.602Z,99714.13
2023-02-11T01:06:56.578Z,99708.14
2023-02-11T01:09:29.966Z,99716.76
2023-02-11T01:12:03.153Z,99723.69
2023-02-11T01:14:35.310Z,99725.39
2023-02-11T01:17:08.009Z,99725.42
2023-02-11T01:19:40.599Z,99730.55
2023-02-11T01:22:12.766Z,99731.44
2023-02-11T01:24:45.180Z,99734.98
2023-02-11T01:27:17.320Z,99737.50
2023-02-11T01:29:49.346Z,99736.70
2023-02-11T01:32:21.383Z,99738.44
2023-02-11T01:34:53.477Z,99744.50
2023-02-11T01:37:25.600Z,99740.22
2023-02-11T01:39:57.511Z,99751.33
2023-02-11T01:42:30.327Z,99734.14
2023-02-11T01:45:05.227Z,99740.17
2023-02-11T01:47:37.274Z,99743.63
2023-02-11T01:50:09.336Z,99741.94
2023-02-11T01:52:43.302Z,99745.38
2023-02-11T01:55:33.711Z,99744.52
2023-02-11T01:58:07.420Z,99739.43
2023-02-11T02:00:42.148Z,99747.98
2023-02-11T02:03:23.498Z,99743.69
2023-02-11T02:06:01.343Z,99741.92
2023-02-11T02:08:39.008Z,99749.55
2023-02-11T02:11:11.604Z,99740.85
2023-02-11T02:13:43.819Z,99733.91
2023-02-11T02:16:20.169Z,99739.79
2023-02-11T02:19:04.177Z,99746.59
2023-02-11T02:21:48.126Z,99744.82
2023-02-11T02:24:26.157Z,99748.17
2023-02-11T02:27:17.893Z,99745.45
2023-02-11T02:30:07.481Z,99748.02
2023-02-11T02:32:51.417Z,99735.90
2023-02-11T02:35:32.467Z,99746.14
2023-02-11T02:38:15.947Z,99747.81
2023-02-11T02:41:00.105Z,99755.45
2023-02-11T02:43:31.902Z,99746.02
2023-02-11T02:46:15.926Z,99753.55
2023-02-11T02:48:49.918Z,99755.32
2023-02-11T02:51:40.456Z,99760.44
2023-02-11T02:54:42.845Z,99746.76
2023-02-11T02:57:37.090Z,99743.31
2023-02-11T03:00:18.265Z,99743.31
2023-02-11T03:03:08.441Z,99735.62
2023-02-11T03:05:58.484Z,99740.72
2023-02-11T03:08:39.476Z,99744.20
2023-02-11T03:11:13.534Z,99743.42
2023-02-11T03:13:47.683Z,99740.04
2023-02-11T03:16:22.703Z,99743.55
2023-02-11T03:19:06.550Z,99747.92
2023-02-11T03:21:41.470Z,99745.43
2023-02-11T03:24:16.284Z,99743.70
2023-02-11T03:26:56.902Z,99744.55
2023-02-11T03:29:48.447Z,99742.89
2023-02-11T03:32:33.001Z,99742.80
2023-02-11T03:35:16.670Z,99741.97
2023-02-11T03:38:00.584Z,99739.44
2023-02-11T03:40:35.452Z,99722.30
2023-02-11T03:43:10.469Z,99726.67
2023-02-11T03:45:42.693Z,99726.75
2023-02-11T03:48:17.787Z,99725.86
2023-02-11T03:50:52.662Z,99726.61
2023-02-11T03:53:24.834Z,99726.72
2023-02-11T03:55:59.959Z,99721.58
2023-02-11T03:58:32.173Z,99727.58
2023-02-11T04:01:05.309Z,99728.45
2023-02-11T04:03:37.741Z,99718.14
2023-02-11T04:06:10.069Z,99713.77
2023-02-11T04:08:42.646Z,99711.32
2023-02-11T04:11:15.021Z,99718.14
2023-02-11T04:13:47.667Z,99720.92
2023-02-11T04:16:20.295Z,99708.97
2023-02-11T04:18:52.334Z,99718.56
2023-02-11T04:21:24.722Z,99707.55
2023-02-11T04:23:56.842Z,99701.62
2023-02-11T04:26:29.015Z,99716.28
2023-02-11T04:29:01.235Z,99706.86
2023-02-11T04:31:33.776Z,99706.78
2023-02-11T04:34:06.350Z,99714.58
2023-02-11T04:36:38.664Z,99708.53
2023-02-11T04:39:10.871Z,99708.63
2023-02-11T04:41:43.161Z,99714.72
2023-02-11T04:44:15.636Z,99713.84
2023-02-11T04:46:48.059Z,99710.45
2023-02-11T04:49:20.172Z,99708.76
2023-02-11T04:51:52.229Z,99720.75
2023-02-11T04:54:24.527Z,99717.37
2023-02-11T04:56:56.665Z,99721.63
2023-02-11T04:59:28.619Z,99712.98
2023-02-11T05:02:00.597Z,99724.08
2023-02-11T05:04:33.052Z,99717.17
2023-02-11T05:07:05.781Z,99718.86
2023-02-11T05:09:38.460Z,99720.63
2023-02-11T05:12:10.581Z,99724.94
2023-02-11T05:14:44.146Z,99722.38
2023-02-11T05:17:16.087Z,99716.36
2023-02-11T05:19:48.388Z,99721.50
2023-02-11T05:22:22.187Z,99729.14
2023-02-11T05:24:54.772Z,99710.28
2023-02-11T05:27:26.788Z,99723.97
2023-02-11T05:29:59.642Z,99720.44
2023-02-11T05:32:34.475Z,99720.37
2023-02-11T05:35:07.805Z,99712.59
2023-02-11T05:37:40.872Z,99715.09
2023-02-11T05:40:13.641Z,99710.71
2023-02-11T05:42:45.992Z,99709.75
2023-02-11T05:45:18.259Z,99716.58
2023-02-11T05:47:50.940Z,99719.12
2023-02-11T05:50:23.229Z,99719.06
2023-02-11T05:52:56.421Z,99716.34
2023-02-11T05:55:29.243Z,99713.60
2023-02-11T05:58:01.304Z,99707.59
2023-02-11T06:00:33.550Z,99711.05
2023-02-11T06:03:06.177Z,99716.11
2023-02-11T06:05:39.250Z,99715.25
2023-02-11T06:08:11.720Z,99711.80
2023-02-11T06:10:46.774Z,99710.89
2023-02-11T06:13:19.953Z,99710.78
2023-02-11T06:15:59.686Z,99723.66
2023-02-11T06:18:33.556Z,99715.88
2023-02-11T06:21:11.316Z,99708.92
2023-02-11T06:23:43.824Z,99714.84
2023-02-11T06:26:21.548Z,99713.08
2023-02-11T06:28:54.033Z,99715.69
2023-02-11T06:31:27.427Z,99707.90
2023-02-11T06:33:59.889Z,99704.30
2023-02-11T06:36:32.270Z,99704.30
2023-02-11T06:39:05.629Z,99705.14
2023-02-11T06:41:38.114Z,99708.50
2023-02-11T06:44:12.168Z,99712.72
2023-02-11T06:46:44.848Z,99696.20
2023-02-11T06:49:17.019Z,99697.90
2023-02-11T06:51:49.151Z,99694.42
2023-02-11T06:54:21.261Z,99703.02
2023-02-11T06:56:53.883Z,99697.80
2023-02-11T06:59:26.221Z,99695.14
2023-02-11T07:01:59.368Z,99708.03
2023-02-11T07:04:32.287Z,99716.58
2023-02-11T07:07:06.538Z,99715.73
2023-02-11T07:09:38.569Z,99713.13
2023-02-11T07:12:12.658Z,99703.59
2023-02-11T07:14:45.108Z,99710.39
2023-02-11T07:17:18.266Z,99711.11
2023-02-11T07:19:50.323Z,99708.33
2023-02-11T07:22:22.426Z,99704.02
2023-02-11T07:24:54.795Z,99698.82
2023-02-11T07:27:28.073Z,99704.17
2023-02-11T07:30:00.315Z,99698.95
2023-02-11T07:32:33.439Z,99692.74
2023-02-11T07:35:06.004Z,99692.58
2023-02-11T07:37:38.374Z,99686.44
2023-02-11T07:40:13.780Z,99683.63
2023-02-11T07:42:46.336Z,99682.65
2023-02-11T07:45:19.473Z,99680.70
2023-02-11T07:47:52.609Z,99676.64
2023-02-11T07:50:25.575Z,99681.37
2023-02-11T07:52:57.888Z,99677.98
2023-02-11T07:55:30.537Z,99670.35
2023-02-11T07:58:02.557Z,99675.61
2023-02-11T08:00:34.720Z,99675.64
2023-02-11T08:03:08.485Z,99672.14
2023-02-11T08:05:40.899Z,99669.34
2023-02-11T08:08:13.168Z,99670.02
2023-02-11T08:10:45.393Z,99669.84
2023-02-11T08:13:23.370Z,99658.65
2023-02-11T08:15:57.019Z,99655.22
2023-02-11T08:18:29.936Z,99661.50
2023-02-11T08:21:10.483Z,99665.89
2023-02-11T08:23:44.517Z,99657.27
2023-02-11T08:26:19.622Z,99653.73
2023-02-11T08:28:53.472Z,99647.66
2023-02-11T08:31:31.760Z,99639.06
2023-02-11T08:34:04.489Z,99642.42
2023-02-11T08:36:39.134Z,99637.09
2023-02-11T08:39:20.351Z,99630.88
2023-02-11T08:41:54.095Z,99630.84
2023-02-11T08:44:26.861Z,99629.13
2023-02-11T08:46:59.164Z,99623.97
2023-02-11T08:49:32.496Z,99617.06
2023-02-11T08:52:06.624Z,99612.84
2023-02-11T08:54:39.335Z,99607.94
2023-02-11T08:57:11.422Z,99610.52
2023-02-11T08:59:45.060Z,99601.86
2023-02-11T09:02:17.893Z,99596.33
2023-02-11T09:04:50.974Z,99586.90
2023-02-11T09:07:23.484Z,99577.58
2023-02-11T09:09:55.829Z,99567.15
2023-02-11T09:12:28.391Z,99563.78
2023-02-11T09:15:01.120Z,99549.12
2023-02-11T09:17:33.824Z,99548.11
2023-02-11T09:20:06.169Z,99541.30
2023-02-11T09:22:38.316Z,99535.41
2023-02-11T09:25:10.871Z,99534.75
2023-02-11T09:27:43.530Z,99527.94
2023-02-11T09:30:17.117Z,99509.12
2023-02-11T09:32:50.577Z,99509.86
2023-02-11T09:35:22.998Z,99498.56
2023-02-11T09:37:56.574Z,99497.70
2023-02-11T09:40:28.900Z,99507.19
2023-02-11T09:43:07.132Z,99489.02
2023-02-11T09:45:40.272Z,99493.48
2023-02-11T09:48:16.489Z,99490.18
2023-02-11T09:50:54.541Z,99493.74
2023-02-11T13:07:17.163Z,99140.91
2023-02-11T13:10:06.473Z,99137.81
2023-02-11T13:12:59.174Z,99116.94
2023-02-11T13:15:32.884Z,99128.75
2023-02-11T13:18:24.750Z,99113.09
2023-02-11T13:21:19.323Z,99101.01
2023-02-11T13:23:58.286Z,99103.45
2023-02-11T13:26:42.383Z,99082.92
2023-02-11T13:29:42.967Z,99086.34
2023-02-11T13:32:16.037Z,99078.59
2023-02-11T13:34:54.027Z,99073.42
2023-02-11T13:37:40.870Z,99054.59
2023-02-11T13:40:25.264Z,99052.08
2023-02-11T13:42:58.724Z,99050.53
2023-02-11T13:45:36.441Z,99031.31
2023-02-11T13:48:20.362Z,99028.28
2023-02-11T13:50:55.888Z,99022.23
2023-02-11T13:53:30.858Z,99024.26
2023-02-11T13:56:11.857Z,99011.62
2023-02-11T13:58:52.383Z,99009.17
2023-02-11T14:01:44.378Z,99008.45
2023-02-11T14:04:43.049Z,98995.67
2023-02-11T14:07:49.929Z,98983.73
2023-02-11T14:10:44.262Z,98972.63
2023-02-11T14:13:31.901Z,98970.90
2023-02-11T14:16:13.975Z,98954.32
2023-02-11T14:18:52.194Z,98945.27
2023-02-11T14:21:28.740Z,98941.07
2023-02-11T14:24:07.387Z,98938.52
2023-02-11T14:27:03.594Z,98927.48
2023-02-11T14:29:44.285Z,98923.08
2023-02-11T14:32:38.780Z,98919.81
2023-02-11T14:35:40.748Z,98910.36
2023-02-11T14:38:37.370Z,98897.53
2023-02-11T14:41:27.531Z,98885.42
2023-02-11T14:44:18.238Z,98874.90
2023-02-11T14:46:55.176Z,98866.34
2023-02-11T14:49:39.912Z,98860.25
2023-02-11T14:52:26.661Z,98851.75
2023-02-11T14:55:04.747Z,98852.65
2023-02-11T14:57:39.198Z,98841.47
2023-02-11T15:00:26.359Z,98836.31
2023-02-11T15:03:01.898Z,98836.34
2023-02-11T15:05:34.378Z,98826.75
2023-02-11T15:08:09.982Z,98830.83
2023-02-11T15:10:44.469Z,98825.92
2023-02-11T15:13:19.834Z,98819.08
2023-02-11T15:15:55.172Z,98807.02
2023-02-11T15:18:30.907Z,98800.95
2023-02-11T15:21:04.888Z,98792.39
2023-02-11T15:23:37.586Z,98801.78
2023-02-11T15:26:18.109Z,98789.67
2023-02-11T15:28:52.188Z,98784.58
2023-02-11T15:31:27.898Z,98782.86
2023-02-11T15:34:05.716Z,98784.58
2023-02-11T15:36:40.157Z,98781.07
2023-02-11T15:39:34.560Z,98776.84
2023-02-11T15:42:38.108Z,98767.20
2023-02-11T15:45:19.752Z,98764.69
2023-02-11T15:48:13.247Z,98756.02
2023-02-11T15:50:51.572Z,98755.98
2023-02-11T15:53:33.199Z,98747.34
2023-02-11T15:56:11.617Z,98741.25
2023-02-11T15:58:48.962Z,98736.95
2023-02-11T16:01:23.129Z,98732.69
2023-02-11T16:03:56.418Z,98729.17
2023-02-11T16:06:45.606Z,98716.27
2023-02-11T16:09:21.922Z,98721.39
2023-02-11T16:11:58.337Z,98713.58
2023-02-11T16:14:34.033Z,98717.83
2023-02-11T16:17:30.903Z,98713.50
2023-02-11T16:20:11.298Z,98705.72
2023-02-11T16:22:48.441Z,98702.23
2023-02-11T16:25:24.905Z,98696.14
2023-02-11T16:27:58.632Z,98684.88
2023-02-11T16:30:40.514Z,98680.73
2023-02-11T16:33:18.364Z,98688.47
2023-02-11T16:35:54.190Z,98678.15
2023-02-11T16:38:27.549Z,98682.45
2023-02-11T16:40:59.584Z,98678.89
2023-02-11T16:43:33.123Z,98667.83
2023-02-11T16:46:05.959Z,98667.83
2023-02-11T16:48:41.468Z,98659.27
2023-02-11T16:51:14.091Z,98648.05
2023-02-11T16:53:46.808Z,98628.35
2023-02-11T16:56:19.922Z,98643.70
2023-02-11T16:58:51.674Z,98636.41
2023-02-11T17:01:24.183Z,98613.56
2023-02-11T17:03:58.118Z,98615.32
2023-02-11T17:06:30.202Z,98619.58
2023-02-11T17:09:03.905Z,98622.69
2023-02-11T17:11:36.561Z,98609.22
2023-02-11T17:14:12.013Z,98614.30
2023-02-11T17:16:46.549Z,98608.32
2023-02-11T17:19:21.217Z,98604.10
2023-02-11T17:21:54.914Z,98593.69
2023-02-11T17:24:27.650Z,98583.33
2023-02-11T17:27:00.974Z,98579.80
2023-02-11T17:29:34.633Z,98563.67
2023-02-11T17:32:07.239Z,98566.89
2023-02-11T17:34:39.326Z,98569.09
2023-02-11T17:37:11.363Z,98544.54
2023-02-11T17:39:45.059Z,98545.53
2023-02-11T17:42:20.580Z,98555.93
2023-02-11T17:44:51.766Z,98562.81
2023-02-11T17:47:24.062Z,98559.70
2023-02-11T17:49:56.097Z,98542.91
2023-02-11T17:52:28.425Z,98537.02
2023-02-11T17:55:00.597Z,98528.41
2023-02-11T17:57:33.445Z,98529.27
2023-02-11T18:00:07.174Z,98529.18
2023-02-11T18:02:40.742Z,98510.99
2023-02-11T18:05:13.101Z,98507.55
2023-02-11T18:07:45.647Z,98505.05
2023-02-11T18:10:18.029Z,98496.41
2023-02-11T18:12:51.010Z,98495.46
2023-02-11T18:15:24.567Z,98493.73
2023-02-11T18:17:57.350Z,98482.47
2023-02-11T18:20:29.986Z,98478.25
2023-02-11T18:23:03.054Z,98481.61
2023-02-11T18:25:35.488Z,98467.79
2023-02-11T18:28:07.724Z,98471.15
2023-02-11T18:30:40.077Z,98448.87
2023-02-11T18:33:13.764Z,98450.50
2023-02-11T18:35:47.259Z,98431.66
2023-02-11T18:38:19.367Z,98418.17
2023-02-11T18:40:52.603Z,98432.34
2023-02-11T18:43:24.823Z,98428.08
2023-02-11T18:45:57.297Z,98426.32
2023-02-11T18:48:29.733Z,98422.02
2023-02-11T18:51:01.824Z,98413.31
2023-02-11T18:53:33.886Z,98414.09
2023-02-11T18:56:11.652Z,98411.51
2023-02-11T18:58:44.126Z,98407.20
2023-02-11T19:01:19.274Z,98405.52
2023-02-11T19:03:51.937Z,98410.50
2023-02-11T19:06:27.754Z,98399.36
2023-02-11T19:09:02.910Z,98371.02
2023-02-11T19:11:54.648Z,98402.81
2023-02-11T19:14:29.659Z,98413.98
2023-02-11T19:17:04.953Z,98406.09
2023-02-11T19:19:37.779Z,98400.03
2023-02-11T19:22:10.873Z,98395.82
2023-02-11T19:24:43.081Z,98384.59
2023-02-11T19:27:15.134Z,98369.91
2023-02-11T19:29:47.337Z,98374.88
2023-02-11T19:32:19.547Z,98369.00
2023-02-11T19:34:52.516Z,98380.28
2023-02-11T19:37:25.117Z,98359.34
2023-02-11T19:39:57.379Z,98366.23
2023-02-11T19:42:29.711Z,98366.31
2023-02-11T19:45:01.711Z,98360.06
2023-02-11T19:47:34.279Z,98357.72
2023-02-11T19:50:07.904Z,98344.75
2023-02-11T19:52:40.920Z,98344.70
2023-02-11T19:55:13.421Z,98343.70
2023-02-11T19:57:45.486Z,98334.19
2023-02-11T20:00:18.033Z,98334.33
2023-02-11T20:02:50.408Z,98338.58
2023-02-11T20:05:22.615Z,98321.22
2023-02-11T20:07:55.069Z,98327.24
2023-02-11T20:10:27.780Z,98325.43
2023-02-11T20:12:59.880Z,98317.88
2023-02-11T20:15:33.121Z,98315.24
2023-02-11T20:18:05.877Z,98306.70
2023-02-11T20:20:39.690Z,98301.28
2023-02-11T20:23:11.827Z,98302.24
2023-02-11T20:25:43.907Z,98296.97
2023-02-11T20:28:16.009Z,98297.88
2023-02-11T20:30:58.943Z,98290.80
2023-02-11T20:33:33.472Z,98295.10
2023-02-11T20:36:12.021Z,98292.41
2023-02-11T20:38:44.120Z,98290.98
2023-02-11T20:41:25.231Z,98285.47
2023-02-11T20:43:59.406Z,98284.72
2023-02-11T20:46:33.802Z,98281.38
2023-02-11T20:49:06.053Z,98292.52
2023-02-11T20:51:39.072Z,98282.99
2023-02-11T20:54:13.992Z,98283.76
2023-02-11T20:56:48.246Z,98275.79
2023-02-11T20:59:21.115Z,98279.03
2023-02-11T21:01:55.837Z,98268.47
2023-02-11T21:04:30.620Z,98272.41
2023-02-11T21:07:03.749Z,98269.06
2023-02-11T21:09:36.713Z,98276.01
2023-02-11T21:12:09.258Z,98264.00
2023-02-11T21:14:41.443Z,98276.09
2023-02-11T21:17:13.378Z,98271.75
2023-02-11T21:19:45.415Z,98266.53
2023-02-11T21:22:17.411Z,98274.22
2023-02-11T21:24:49.419Z,98268.16
2023-02-11T21:27:21.525Z,98267.39
2023-02-11T21:29:54.900Z,98275.13
2023-02-11T21:32:26.994Z,98267.25
2023-02-11T21:35:01.862Z,98274.94
2023-02-11T21:37:33.385Z,98270.68
2023-02-11T21:40:05.347Z,98267.19
2023-02-11T21:42:38.064Z,98258.67
2023-02-11T21:45:10.890Z,98263.78
2023-02-11T21:47:43.096Z,98260.34
2023-02-11T21:50:15.129Z,98251.75
2023-02-11T21:52:47.552Z,98265.46
2023-02-11T21:55:20.098Z,98261.20
2023-02-11T21:57:52.302Z,98262.87
2023-02-11T22:00:25.307Z,98255.89
2023-02-11T22:02:57.644Z,98262.63
2023-02-11T22:05:29.615Z,98254.11
2023-02-11T22:08:01.604Z,98250.56
2023-02-11T22:10:33.893Z,98247.13
2023-02-11T22:13:05.960Z,98247.66
2023-02-11T22:15:38.458Z,98252.06
2023-02-11T22:18:10.618Z,98253.85
2023-02-11T22:20:43.063Z,98244.38
2023-02-11T22:23:16.061Z,98249.66
2023-02-11T22:25:48.337Z,98252.17
2023-02-11T22:28:20.292Z,98249.59
2023-02-11T22:30:56.247Z,98249.59
2023-02-11T22:33:28.746Z,98245.23
2023-02-11T22:36:08.851Z,98248.08
2023-02-11T22:38:41.113Z,98249.54
2023-02-11T22:41:13.845Z,98253.85
2023-02-11T22:43:46.294Z,98248.69
2023-02-11T22:46:20.283Z,98251.27
2023-02-11T22:48:52.847Z,98250.45
2023-02-11T22:51:27.964Z,98251.21
2023-02-11T22:54:02.240Z,98254.70
2023-02-11T22:56:34.314Z,98259.76
2023-02-11T22:59:09.055Z,98267.08
2023-02-11T23:01:41.852Z,98265.75
2023-02-11T23:04:16.347Z,98271.82
2023-02-11T23:06:48.587Z,98270.91
2023-02-11T23:09:20.637Z,98281.19
2023-02-11T23:11:54.530Z,98275.20
2023-02-11T23:14:26.660Z,98281.13
2023-02-11T23:16:59.740Z,98281.13
2023-02-11T23:19:31.962Z,98274.95
2023-02-11T23:22:05.910Z,98282.58
2023-02-11T23:24:38.340Z,98275.59
2023-02-11T23:27:10.763Z,98288.52
2023-02-11T23:29:42.829Z,98280.91
2023-02-11T23:32:14.998Z,98290.28
2023-02-11T23:34:47.207Z,98285.16
2023-02-11T23:37:19.432Z,98288.72
2023-02-11T23:39:51.959Z,98298.03
2023-02-11T23:42:23.926Z,98306.75
2023-02-11T23:44:56.201Z,98302.45
2023-02-11T23:47:28.493Z,98314.61
2023-02-11T23:50:02.184Z,98324.03
2023-02-11T23:52:34.312Z,98331.73
2023-02-11T23:55:07.163Z,98327.27
2023-02-11T23:57:39.273Z,98342.89
